Time;durP1;ratioP1;P1;durP2;ratioP2;P2;SDS_P1;SDS_P2;PMS_P1;PMS_P2;Temp;Humidity;BMP_temperature;BMP_pressure;BME280_temperature;BME280_humidity;BME280_pressure;Samples;Min_cycle;Max_cycle;Signal;HPM_P1;HPM_P2
2022/09/06 00:01:50;;;;;;;10.05;3.88;;;21.70;92.00;;;;;;5030956;28;20032;-84
2022/09/06 00:04:16;;;;;;;12.50;3.78;;;21.80;92.00;;;;;;5031164;28;20029;-84
2022/09/06 00:06:41;;;;;;;8.70;3.60;;;21.80;92.00;;;;;;5030986;28;20029;-84
2022/09/06 00:09:07;;;;;;;7.70;3.55;;;21.80;92.00;;;;;;5030709;28;20033;-84
2022/09/06 00:11:33;;;;;;;11.88;4.10;;;21.90;91.90;;;;;;5013554;28;20079;-83
2022/09/06 00:13:58;;;;;;;8.90;4.28;;;21.90;91.80;;;;;;5030663;28;20034;-84
2022/09/06 00:16:25;;;;;;;9.90;3.75;;;21.90;91.70;;;;;;5013212;28;20025;-83
2022/09/06 00:18:54;;;;;;;10.85;3.85;;;21.90;91.60;;;;;;5030561;28;20053;-83
2022/09/06 00:21:29;;;;;;;9.48;4.00;;;22.00;91.60;;;;;;5031124;28;20475;-83
2022/09/06 00:23:54;;;;;;;18.05;3.78;;;22.00;91.60;;;;;;5030753;28;20072;-84
2022/09/06 00:26:21;;;;;;;8.70;3.40;;;22.00;91.40;;;;;;5030669;28;20037;-84
2022/09/06 00:28:48;;;;;;;6.30;2.70;;;22.00;91.20;;;;;;5030779;28;20100;-84
2022/09/06 00:31:22;;;;;;;5.72;2.80;;;22.00;91.00;;;;;;5030952;28;20079;-84
2022/09/06 00:33:48;;;;;;;6.93;2.63;;;22.00;90.80;;;;;;5013238;28;20033;-84
2022/09/06 00:36:14;;;;;;;5.20;2.83;;;22.10;90.50;;;;;;5028642;28;20057;-83
2022/09/06 00:38:41;;;;;;;5.93;2.78;;;22.10;90.30;;;;;;5028899;28;20072;-83
2022/09/06 00:41:09;;;;;;;5.53;2.63;;;22.10;90.10;;;;;;5029131;28;20046;-84
2022/09/06 00:43:35;;;;;;;8.45;2.70;;;22.10;90.20;;;;;;5014282;28;20092;-84
2022/09/06 00:46:02;;;;;;;7.50;2.50;;;22.10;90.20;;;;;;5033434;28;20025;-83
2022/09/06 00:48:28;;;;;;;7.13;2.70;;;22.10;90.10;;;;;;5034754;28;20028;-83
2022/09/06 00:50:59;;;;;;;6.93;2.80;;;22.10;90.00;;;;;;5034360;28;20420;-83
2022/09/06 00:53:25;;;;;;;6.45;2.90;;;22.20;90.00;;;;;;5034863;28;20367;-83
2022/09/06 00:55:52;;;;;;;6.93;3.28;;;22.20;90.00;;;;;;5034299;28;20036;-83
2022/09/06 00:58:18;;;;;;;7.88;2.90;;;22.20;90.10;;;;;;5034646;28;20508;-84
2022/09/06 01:00:44;;;;;;;7.40;2.75;;;22.10;90.10;;;;;;5034190;28;20025;-84
2022/09/06 01:03:10;;;;;;;6.57;2.70;;;22.10;90.30;;;;;;5034491;28;20025;-84
2022/09/06 01:05:42;;;;;;;5.63;2.40;;;22.00;90.30;;;;;;5034280;28;20049;-84
2022/09/06 01:08:25;;;;;;;7.13;3.38;;;22.00;90.50;;;;;;5034157;28;20029;-84
2022/09/06 01:11:09;;;;;;;6.97;2.58;;;22.00;90.30;;;;;;5034196;28;20490;-84
2022/09/06 01:13:57;;;;;;;7.68;2.63;;;22.00;90.40;;;;;;5034276;28;20033;-83
2022/09/06 01:16:51;;;;;;;4.23;2.20;;;22.00;90.40;;;;;;5034080;28;20088;-83
2022/09/06 01:19:48;;;;;;;6.60;2.58;;;22.00;90.70;;;;;;5032893;28;20044;-84
2022/09/06 01:22:32;;;;;;;4.88;2.20;;;21.90;91.00;;;;;;5033942;28;20100;-84
2022/09/06 01:25:19;;;;;;;9.38;2.22;;;21.90;91.20;;;;;;5016314;28;20044;-84
2022/09/06 01:28:18;;;;;;;3.03;1.92;;;21.90;91.30;;;;;;5033328;28;20036;-84
2022/09/06 01:30:56;;;;;;;3.83;2.03;;;21.90;91.40;;;;;;5016372;28;20037;-83
2022/09/06 01:33:44;;;;;;;7.20;2.00;;;21.90;91.70;;;;;;5016453;28;20030;-84
2022/09/06 01:36:16;;;;;;;5.47;2.17;;;21.90;92.00;;;;;;5033694;28;20478;-83
2022/09/06 01:38:42;;;;;;;5.45;2.72;;;21.80;92.30;;;;;;5033588;28;20025;-83
2022/09/06 01:41:08;;;;;;;5.57;2.88;;;21.80;92.50;;;;;;5033626;28;20032;-83
2022/09/06 01:43:38;;;;;;;4.65;2.20;;;21.80;92.70;;;;;;5032683;28;20052;-84
2022/09/06 01:46:17;;;;;;;4.93;2.13;;;21.80;92.90;;;;;;5015949;28;20073;-84
2022/09/06 01:49:02;;;;;;;6.43;2.10;;;21.80;93.00;;;;;;5033583;28;20038;-83
2022/09/06 01:51:51;;;;;;;7.75;2.45;;;21.80;93.00;;;;;;4999445;28;20482;-84
2022/09/06 01:54:32;;;;;;;7.07;2.58;;;21.80;93.50;;;;;;5032937;28;20036;-84
2022/09/06 01:57:13;;;;;;;5.60;2.67;;;21.80;94.80;;;;;;5033084;28;20029;-83
2022/09/06 01:59:56;;;;;;;5.05;2.40;;;21.70;95.70;;;;;;5033317;28;20079;-83
2022/09/06 02:02:31;;;;;;;6.47;2.60;;;21.70;97.10;;;;;;5016010;28;20060;-84
2022/09/06 02:05:06;;;;;;;5.75;2.67;;;21.60;97.40;;;;;;5033462;28;20034;-84
2022/09/06 02:07:35;;;;;;;6.50;2.80;;;21.50;97.90;;;;;;5033286;28;20037;-84
2022/09/06 02:10:07;;;;;;;;;;;21.50;98.60;;;;;;5033381;28;20033;-84
2022/09/06 02:12:35;;;;;;;7.53;3.55;;;21.40;99.00;;;;;;5033133;28;19913;-84
2022/09/06 02:15:07;;;;;;;;;;;21.40;99.10;;;;;;5015998;28;20037;-84
2022/09/06 02:17:38;;;;;;;6.78;3.30;;;21.40;98.80;;;;;;5033019;28;19909;-84
2022/09/06 02:20:12;;;;;;;4.55;2.97;;;21.40;98.40;;;;;;5032829;28;20029;-83
2022/09/06 02:22:45;;;;;;;5.70;3.42;;;21.30;98.50;;;;;;5033000;28;20080;-83
2022/09/06 02:25:18;;;;;;;7.05;3.45;;;21.30;98.80;;;;;;5015319;28;20080;-84
2022/09/06 02:27:43;;;;;;;6.57;3.05;;;21.30;99.20;;;;;;5126219;23;20041;-67
2022/09/06 02:30:10;;;;;;;5.82;3.25;;;21.30;99.50;;;;;;5032122;28;20511;-67
2022/09/06 02:32:49;;;;;;;7.60;2.83;;;21.20;99.60;;;;;;5032893;28;20033;-68
2022/09/06 02:35:16;;;;;;;5.63;2.97;;;21.20;99.90;;;;;;5032946;28;20029;-67
2022/09/06 02:37:43;;;;;;;4.85;2.78;;;21.20;99.90;;;;;;5032813;28;20022;-67
2022/09/06 02:40:09;;;;;;;7.00;2.83;;;21.20;99.90;;;;;;5032548;28;20478;-67
2022/09/06 02:42:35;;;;;;;6.03;2.80;;;21.20;99.90;;;;;;5032727;28;20083;-67
2022/09/06 02:45:01;;;;;;;8.30;3.78;;;21.20;99.90;;;;;;5032796;28;20033;-67
2022/09/06 02:47:27;;;;;;;8.88;3.53;;;21.20;99.90;;;;;;5032383;28;20033;-67
2022/09/06 02:49:53;;;;;;;6.57;3.38;;;21.20;99.90;;;;;;5032524;28;20563;-67
2022/09/06 02:52:19;;;;;;;7.10;3.15;;;21.20;99.90;;;;;;5032315;28;20461;-67
2022/09/06 02:54:45;;;;;;;5.88;3.40;;;21.10;99.90;;;;;;5032438;28;20060;-67
2022/09/06 02:57:11;;;;;;;5.50;3.05;;;21.00;99.90;;;;;;5032321;28;20120;-67
2022/09/06 02:59:37;;;;;;;8.05;3.75;;;21.00;99.90;;;;;;5031815;28;20474;-67
2022/09/06 03:02:03;;;;;;;7.57;3.65;;;21.00;99.90;;;;;;5031291;28;20033;-67
2022/09/06 03:04:29;;;;;;;5.43;3.05;;;20.90;99.90;;;;;;5032207;28;20026;-67
2022/09/06 03:06:56;;;;;;;7.53;3.40;;;20.90;99.90;;;;;;5031910;28;20025;-67
2022/09/06 03:09:21;;;;;;;5.45;3.47;;;20.90;99.90;;;;;;5032328;28;20022;-67
2022/09/06 03:11:47;;;;;;;5.90;3.22;;;20.90;99.90;;;;;;5032025;28;20390;-67
2022/09/06 03:14:15;;;;;;;6.07;3.35;;;20.90;99.90;;;;;;5014108;28;20044;-66
2022/09/06 03:16:42;;;;;;;8.23;3.87;;;20.80;99.90;;;;;;5032045;28;20080;-67
2022/09/06 03:19:08;;;;;;;7.10;3.72;;;20.80;99.90;;;;;;5032138;28;20272;-67
2022/09/06 03:21:34;;;;;;;6.95;3.55;;;20.80;99.90;;;;;;5032019;28;20080;-67
2022/09/06 03:24:00;;;;;;;7.95;3.20;;;20.70;99.90;;;;;;5031957;28;20044;-67
2022/09/06 03:26:26;;;;;;;7.22;3.42;;;20.70;99.90;;;;;;5032054;28;20064;-68
2022/09/06 03:28:53;;;;;;;7.18;3.50;;;20.80;99.90;;;;;;5014147;28;20412;-67
2022/09/06 03:31:19;;;;;;;6.68;3.38;;;20.80;99.90;;;;;;5031660;28;20042;-67
2022/09/06 03:33:45;;;;;;;5.07;2.90;;;20.70;99.90;;;;;;5031396;28;20400;-67
2022/09/06 03:36:11;;;;;;;6.97;3.05;;;20.70;99.90;;;;;;5031380;28;20076;-67
2022/09/06 03:38:36;;;;;;;5.38;3.10;;;20.70;99.90;;;;;;5031449;28;20458;-67
2022/09/06 03:41:02;;;;;;;5.53;3.15;;;20.70;99.90;;;;;;5031127;28;20108;-70
2022/09/06 03:43:29;;;;;;;5.40;3.20;;;20.70;99.90;;;;;;5028583;28;20025;-67
2022/09/06 03:45:56;;;;;;;8.55;3.40;;;20.70;99.90;;;;;;5024214;28;20032;-69
2022/09/06 03:48:24;;;;;;;11.18;3.45;;;20.70;99.90;;;;;;5030405;28;20068;-75
2022/09/06 03:50:51;;;;;;;6.55;3.42;;;20.60;99.90;;;;;;5030516;28;20140;-67
2022/09/06 03:53:18;;;;;;;7.65;3.45;;;20.60;99.90;;;;;;5030671;28;20032;-68
2022/09/06 03:55:46;;;;;;;6.35;3.80;;;20.60;99.90;;;;;;5030659;28;20029;-67
2022/09/06 03:58:12;;;;;;;7.10;3.75;;;20.60;99.90;;;;;;5031018;28;20124;-68
2022/09/06 04:00:38;;;;;;;4.45;3.15;;;20.60;99.90;;;;;;5030010;28;20068;-67
2022/09/06 04:03:04;;;;;;;5.32;3.03;;;20.50;99.90;;;;;;5030708;28;20056;-67
2022/09/06 04:05:30;;;;;;;7.60;3.15;;;20.60;99.90;;;;;;5030319;28;20053;-66
2022/09/06 04:07:55;;;;;;;4.90;3.17;;;20.60;99.90;;;;;;5030535;28;20034;-67
2022/09/06 04:10:21;;;;;;;4.85;3.10;;;20.60;99.90;;;;;;5030195;28;20072;-67
2022/09/06 04:12:47;;;;;;;6.10;3.35;;;20.50;99.90;;;;;;5030552;28;20037;-67
2022/09/06 04:15:13;;;;;;;8.32;3.70;;;20.50;99.90;;;;;;5029873;28;20033;-67
2022/09/06 04:17:44;;;;;;;6.35;3.40;;;20.40;99.90;;;;;;5029920;28;20022;-67
2022/09/06 04:20:11;;;;;;;6.10;3.05;;;20.40;99.90;;;;;;5029986;28;20025;-67
2022/09/06 04:22:37;;;;;;;6.85;4.32;;;20.40;99.90;;;;;;5030373;28;20045;-67
2022/09/06 04:25:04;;;;;;;7.18;4.72;;;20.50;99.90;;;;;;5030375;28;20029;-67
2022/09/06 04:27:30;;;;;;;6.20;3.70;;;20.50;99.90;;;;;;5029921;28;20042;-66
2022/09/06 04:29:56;;;;;;;6.13;3.30;;;20.50;99.90;;;;;;5029630;28;20029;-68
2022/09/06 04:32:22;;;;;;;9.93;4.03;;;20.60;99.90;;;;;;5029995;28;20111;-67
2022/09/06 04:34:48;;;;;;;6.53;3.60;;;20.50;99.90;;;;;;5029810;28;20105;-67
2022/09/06 04:37:18;;;;;;;7.95;3.75;;;20.50;99.90;;;;;;5029861;28;20108;-67
2022/09/06 04:39:48;;;;;;;10.07;4.00;;;20.50;99.90;;;;;;5029304;28;20029;-67
2022/09/06 04:42:14;;;;;;;6.53;3.53;;;20.50;99.90;;;;;;5029661;28;20099;-67
2022/09/06 04:44:40;;;;;;;5.57;3.55;;;20.40;99.90;;;;;;5029604;28;20033;-66
2022/09/06 04:47:13;;;;;;;8.50;3.85;;;20.40;99.90;;;;;;5029843;28;20037;-66
2022/09/06 04:49:40;;;;;;;7.70;3.53;;;20.40;99.90;;;;;;5029725;28;20091;-67
2022/09/06 04:52:07;;;;;;;5.35;3.50;;;20.40;99.90;;;;;;5029465;28;20064;-67
2022/09/06 04:54:33;;;;;;;7.45;3.92;;;20.40;99.90;;;;;;5029320;28;20467;-67
2022/09/06 04:56:58;;;;;;;7.88;4.05;;;20.40;99.90;;;;;;5029872;28;20033;-67
2022/09/06 04:59:24;;;;;;;7.63;3.83;;;20.40;99.90;;;;;;5028869;28;20092;-67
2022/09/06 05:01:50;;;;;;;9.65;3.95;;;20.30;99.90;;;;;;5029306;28;20025;-67
2022/09/06 05:04:16;;;;;;;8.27;3.90;;;20.30;99.90;;;;;;5029288;28;20029;-67
2022/09/06 05:06:42;;;;;;;6.95;4.43;;;20.30;99.90;;;;;;5029621;28;20481;-67
2022/09/06 05:09:08;;;;;;;6.40;3.90;;;20.30;99.90;;;;;;5029794;28;20048;-67
2022/09/06 05:11:35;;;;;;;7.45;4.25;;;20.40;99.90;;;;;;5029856;28;20091;-66
2022/09/06 05:14:01;;;;;;;8.20;4.28;;;20.30;99.90;;;;;;5030086;28;20131;-66
2022/09/06 05:16:26;;;;;;;8.90;4.07;;;20.30;99.90;;;;;;5028830;28;20108;-67
2022/09/06 05:18:52;;;;;;;11.70;5.05;;;20.30;99.90;;;;;;5029634;28;20091;-67
2022/09/06 05:21:18;;;;;;;10.90;4.78;;;20.30;99.90;;;;;;5028940;28;20029;-67
2022/09/06 05:23:44;;;;;;;9.60;4.60;;;20.30;99.90;;;;;;5029168;28;20033;-67
2022/09/06 05:26:10;;;;;;;8.13;4.53;;;20.30;99.90;;;;;;5028932;28;20056;-67
2022/09/06 05:28:36;;;;;;;9.38;4.57;;;20.30;99.90;;;;;;5029280;28;20075;-66
2022/09/06 05:31:12;;;;;;;8.18;4.50;;;20.30;99.90;;;;;;5030435;28;20546;-67
2022/09/06 05:33:38;;;;;;;6.82;4.20;;;20.30;99.90;;;;;;5015099;28;20116;-67
2022/09/06 05:36:05;;;;;;;9.90;4.78;;;20.40;99.90;;;;;;5032701;28;20072;-67
2022/09/06 05:38:31;;;;;;;10.10;4.30;;;20.40;99.90;;;;;;5032804;28;20021;-67
2022/09/06 05:40:57;;;;;;;10.82;4.38;;;20.30;99.90;;;;;;5032343;28;20037;-67
2022/09/06 05:43:24;;;;;;;8.63;4.25;;;20.30;99.90;;;;;;5015249;28;20034;-66
2022/09/06 05:45:50;;;;;;;7.57;3.97;;;20.30;99.90;;;;;;5032202;28;20068;-67
2022/09/06 05:48:17;;;;;;;9.05;4.55;;;20.30;99.90;;;;;;5032696;28;20083;-66
2022/09/06 05:50:43;;;;;;;6.78;4.45;;;20.30;99.90;;;;;;5032248;28;20029;-66
2022/09/06 05:53:09;;;;;;;9.95;4.75;;;20.20;99.90;;;;;;5032760;28;20107;-66
2022/09/06 05:55:35;;;;;;;7.57;4.47;;;20.20;99.90;;;;;;5032598;28;20053;-66
2022/09/06 05:58:01;;;;;;;7.60;4.85;;;20.20;99.90;;;;;;5032558;28;20072;-66
2022/09/06 06:00:27;;;;;;;13.60;4.80;;;20.20;99.90;;;;;;5031739;28;20509;-67
2022/09/06 06:02:53;;;;;;;10.40;5.47;;;20.20;99.90;;;;;;5032435;28;20034;-66
2022/09/06 06:05:19;;;;;;;8.18;4.50;;;20.30;99.90;;;;;;5032262;28;20144;-66
2022/09/06 06:07:45;;;;;;;9.27;4.47;;;20.20;99.90;;;;;;5031685;28;20038;-66
2022/09/06 06:10:11;;;;;;;9.77;4.72;;;20.20;99.90;;;;;;5031594;28;20087;-66
2022/09/06 06:12:37;;;;;;;7.75;4.90;;;20.20;99.90;;;;;;5031920;28;20087;-66
2022/09/06 06:15:07;;;;;;;11.15;5.25;;;20.20;99.90;;;;;;5031348;28;20108;-66
2022/09/06 06:17:33;;;;;;;9.77;5.13;;;20.30;99.90;;;;;;5032108;28;20581;-66
2022/09/06 06:19:59;;;;;;;8.27;4.82;;;20.30;99.90;;;;;;5031410;28;20538;-66
2022/09/06 06:22:25;;;;;;;6.70;4.35;;;20.30;99.90;;;;;;5032204;28;20022;-67
2022/09/06 06:24:51;;;;;;;8.48;4.78;;;20.30;99.90;;;;;;5031789;28;20035;-67
2022/09/06 06:27:17;;;;;;;9.13;5.13;;;20.30;99.90;;;;;;5031682;28;21156;-66
2022/09/06 06:29:43;;;;;;;10.50;5.15;;;20.30;99.90;;;;;;5031290;28;20366;-66
2022/09/06 06:32:09;;;;;;;13.63;5.47;;;20.40;99.90;;;;;;5031442;28;20466;-66
2022/09/06 06:34:35;;;;;;;9.45;5.22;;;20.40;99.90;;;;;;5031323;28;20041;-66
2022/09/06 06:37:01;;;;;;;12.50;5.28;;;20.50;99.90;;;;;;5031490;28;20025;-67
2022/09/06 06:39:27;;;;;;;13.02;4.95;;;20.50;99.90;;;;;;5031462;28;20060;-66
2022/09/06 06:41:53;;;;;;;8.77;4.40;;;20.50;99.90;;;;;;5030947;28;20443;-66
2022/09/06 06:44:36;;;;;;;8.27;3.95;;;20.60;99.90;;;;;;5030955;28;20033;-66
2022/09/06 06:47:02;;;;;;;7.53;4.55;;;20.60;99.90;;;;;;5031284;28;20028;-66
2022/09/06 06:49:28;;;;;;;9.70;4.75;;;20.70;99.90;;;;;;5031368;28;20030;-66
2022/09/06 06:51:54;;;;;;;11.40;5.13;;;20.70;99.90;;;;;;5031448;28;20597;-66
2022/09/06 06:54:20;;;;;;;8.57;4.28;;;20.70;99.90;;;;;;5031109;28;20072;-66
2022/09/06 06:56:46;;;;;;;8.27;4.32;;;20.80;99.90;;;;;;5030205;28;20057;-66
2022/09/06 06:59:13;;;;;;;7.45;4.55;;;20.80;99.90;;;;;;5031074;28;20037;-66
2022/09/06 07:01:39;;;;;;;7.93;4.50;;;20.80;99.90;;;;;;5030643;28;20036;-65
2022/09/06 07:04:05;;;;;;;8.63;4.25;;;20.90;99.90;;;;;;5031139;28;20033;-65
2022/09/06 07:06:49;;;;;;;8.98;5.15;;;20.90;99.90;;;;;;5030754;28;20587;-66
2022/09/06 07:09:17;;;;;;;7.03;4.43;;;20.90;99.90;;;;;;5029539;28;20065;-66
2022/09/06 07:11:43;;;;;;;6.05;3.92;;;21.00;99.90;;;;;;5031039;28;20041;-67
2022/09/06 07:14:09;;;;;;;7.15;3.83;;;21.00;99.90;;;;;;5030960;28;20062;-66
2022/09/06 07:16:34;;;;;;;10.85;5.18;;;21.00;99.90;;;;;;5030697;28;20029;-65
2022/09/06 07:19:00;;;;;;;6.85;3.90;;;21.10;99.90;;;;;;5031030;28;20544;-66
2022/09/06 07:21:26;;;;;;;6.35;3.80;;;21.10;99.90;;;;;;5030815;28;20029;-65
2022/09/06 07:23:53;;;;;;;7.00;3.85;;;21.10;99.90;;;;;;5030850;28;20076;-66
2022/09/06 07:26:24;;;;;;;6.32;3.67;;;21.10;99.90;;;;;;5030715;28;20029;-67
2022/09/06 07:28:55;;;;;;;8.23;4.22;;;21.20;99.90;;;;;;5028796;28;20159;-66
2022/09/06 07:31:21;;;;;;;7.25;3.83;;;21.20;99.90;;;;;;5027701;28;20038;-67
2022/09/06 07:33:47;;;;;;;4.75;3.13;;;21.20;99.90;;;;;;5026285;28;20056;-67
2022/09/06 07:36:13;;;;;;;6.78;3.70;;;21.20;99.90;;;;;;5029540;28;20025;-66
2022/09/06 07:38:39;;;;;;;5.57;3.25;;;21.30;99.90;;;;;;5029810;28;20100;-67
2022/09/06 07:41:07;;;;;;;6.25;3.47;;;21.30;99.90;;;;;;5029615;28;20040;-68
2022/09/06 07:43:34;;;;;;;8.13;3.35;;;21.40;99.90;;;;;;5029570;28;20041;-66
2022/09/06 07:46:05;;;;;;;5.30;3.10;;;21.40;99.90;;;;;;5029385;28;20156;-67
2022/09/06 07:48:33;;;;;;;7.90;3.20;;;21.50;99.90;;;;;;5028989;28;20035;-67
2022/09/06 07:51:04;;;;;;;10.15;3.35;;;21.50;99.90;;;;;;5029127;28;20021;-68
2022/09/06 07:53:30;;;;;;;5.78;2.83;;;21.60;99.90;;;;;;5029029;28;20498;-69
2022/09/06 07:55:57;;;;;;;6.13;3.03;;;21.60;99.90;;;;;;5029388;28;20033;-67
2022/09/06 07:58:23;;;;;;;6.57;3.30;;;21.60;99.90;;;;;;5027673;28;20160;-66
2022/09/06 08:00:48;;;;;;;5.00;2.78;;;21.70;99.80;;;;;;5027024;28;20109;-66
2022/09/06 08:03:14;;;;;;;4.68;3.08;;;21.70;99.90;;;;;;5029261;28;20416;-67
2022/09/06 08:05:40;;;;;;;4.72;2.78;;;21.70;99.90;;;;;;5028658;28;20436;-66
2022/09/06 08:08:06;;;;;;;10.43;3.05;;;21.70;99.80;;;;;;5027709;28;20111;-66
2022/09/06 08:10:32;;;;;;;5.93;2.65;;;21.70;99.60;;;;;;5028324;28;20486;-67
2022/09/06 08:12:58;;;;;;;6.00;2.65;;;21.70;99.30;;;;;;5029162;28;20065;-66
2022/09/06 08:15:24;;;;;;;3.97;2.40;;;21.80;98.90;;;;;;5029486;28;20025;-66
2022/09/06 08:17:50;;;;;;;5.43;2.40;;;21.80;99.30;;;;;;5029971;28;20026;-66
2022/09/06 08:20:16;;;;;;;3.72;2.38;;;21.80;98.70;;;;;;5029530;28;20029;-66
2022/09/06 08:22:42;;;;;;;2.80;1.95;;;21.80;98.90;;;;;;5029967;28;20072;-67
2022/09/06 08:25:09;;;;;;;3.35;2.03;;;21.90;99.30;;;;;;5029578;28;20021;-67
2022/09/06 08:27:35;;;;;;;4.35;2.35;;;21.90;98.90;;;;;;5029831;28;20482;-66
2022/09/06 08:30:01;;;;;;;3.58;2.00;;;21.90;98.20;;;;;;5028841;28;20040;-66
2022/09/06 08:32:27;;;;;;;6.00;2.45;;;21.90;98.10;;;;;;5161766;23;20516;-71
2022/09/06 08:34:53;;;;;;;4.75;2.47;;;22.00;97.90;;;;;;5028934;28;20037;-71
2022/09/06 08:37:19;;;;;;;5.03;2.22;;;22.00;98.50;;;;;;5029321;28;20490;-69
2022/09/06 08:39:45;;;;;;;3.78;2.20;;;22.00;98.90;;;;;;5028844;28;20109;-70
2022/09/06 08:42:11;;;;;;;4.43;2.58;;;22.00;99.10;;;;;;5011447;28;20433;-69
2022/09/06 08:44:47;;;;;;;4.40;2.50;;;22.00;98.70;;;;;;5010924;28;20026;-69
2022/09/06 08:47:17;;;;;;;6.43;2.90;;;22.10;99.60;;;;;;5028476;28;20101;-71
2022/09/06 08:49:55;;;;;;;4.78;2.50;;;22.10;99.90;;;;;;5028937;28;20025;-71
2022/09/06 08:52:38;;;;;;;5.50;2.90;;;22.10;98.80;;;;;;5029771;28;20029;-71
2022/09/06 08:55:25;;;;;;;4.78;2.58;;;22.10;98.90;;;;;;5029289;28;20080;-71
2022/09/06 08:58:21;;;;;;;5.93;2.40;;;22.20;98.10;;;;;;5029024;28;20030;-71
2022/09/06 09:00:57;;;;;;;4.97;2.67;;;22.20;99.40;;;;;;5027948;28;20034;-71
2022/09/06 09:03:43;;;;;;;4.18;2.20;;;22.20;99.90;;;;;;5028682;28;20135;-71
2022/09/06 09:06:09;;;;;;;3.20;2.22;;;22.20;99.00;;;;;;5032245;28;20034;-71
2022/09/06 09:08:43;;;;;;;5.07;2.30;;;22.20;98.30;;;;;;5032454;28;20036;-72
2022/09/06 09:11:14;;;;;;;4.22;2.50;;;22.20;99.40;;;;;;5032556;28;20025;-72
2022/09/06 09:13:46;;;;;;;3.30;2.35;;;22.20;99.90;;;;;;5014681;28;20103;-71
2022/09/06 09:16:16;;;;;;;5.57;2.17;;;22.10;99.90;;;;;;5032261;28;20124;-72
2022/09/06 09:18:54;;;;;;;4.05;2.28;;;22.20;98.30;;;;;;5032689;28;20033;-71
2022/09/06 09:21:23;;;;;;;3.67;2.25;;;22.20;98.30;;;;;;5032847;28;20419;-71
2022/09/06 09:23:54;;;;;;;4.80;2.20;;;22.30;98.00;;;;;;5032795;28;20086;-71
2022/09/06 09:26:24;;;;;;;6.47;2.67;;;22.30;97.80;;;;;;5032703;28;20030;-71
2022/09/06 09:29:07;;;;;;;3.90;2.63;;;22.40;97.10;;;;;;5033178;28;20190;-72
2022/09/06 09:31:51;;;;;;;3.70;2.70;;;22.40;99.10;;;;;;5014041;28;20524;-71
2022/09/06 09:34:29;;;;;;;5.10;2.95;;;22.40;99.90;;;;;;5032235;28;20052;-71
2022/09/06 09:37:24;;;;;;;5.78;3.08;;;22.30;99.50;;;;;;5032047;28;20029;-72
2022/09/06 09:39:54;;;;;;;4.35;2.65;;;22.40;97.20;;;;;;5031595;28;20033;-72
2022/09/06 09:42:38;;;;;;;4.97;2.63;;;22.40;98.00;;;;;;5031824;28;20121;-72
2022/09/06 09:45:20;;;;;;;6.25;2.60;;;22.40;96.60;;;;;;5031863;28;20404;-72
2022/09/06 09:47:46;;;;;;;4.85;3.00;;;22.50;96.40;;;;;;5032198;28;20049;-72
2022/09/06 09:50:30;;;;;;;7.25;2.92;;;22.60;96.10;;;;;;5031563;28;20497;-72
2022/09/06 09:53:09;;;;;;;6.68;2.70;;;22.60;95.70;;;;;;5031665;28;20053;-72
2022/09/06 09:55:35;;;;;;;4.93;2.17;;;22.70;94.50;;;;;;5031567;28;20032;-72
2022/09/06 09:58:02;;;;;;;4.97;2.10;;;22.70;94.40;;;;;;5013698;28;20549;-72
2022/09/06 10:00:41;;;;;;;3.92;2.08;;;22.80;93.70;;;;;;5012474;28;20045;-72
2022/09/06 10:03:22;;;;;;;4.45;1.80;;;22.80;94.10;;;;;;5031781;28;20037;-72
2022/09/06 10:05:59;;;;;;;4.78;1.70;;;22.90;92.70;;;;;;5031359;28;20029;-72
2022/09/06 10:08:26;;;;;;;5.32;1.83;;;23.00;92.80;;;;;;5031919;28;20029;-72
2022/09/06 10:10:52;;;;;;;4.47;1.92;;;23.00;92.80;;;;;;5031268;28;20439;-72
2022/09/06 10:13:30;;;;;;;4.25;2.22;;;23.10;92.80;;;;;;5030783;28;20037;-71
2022/09/06 10:15:58;;;;;;;5.22;2.05;;;23.10;92.90;;;;;;5029327;28;20065;-70
2022/09/06 10:18:42;;;;;;;4.03;2.00;;;23.20;93.00;;;;;;5013434;28;20034;-71
2022/09/06 10:21:12;;;;;;;4.95;2.45;;;23.20;92.60;;;;;;5013140;28;20035;-71
2022/09/06 10:23:53;;;;;;;4.85;2.20;;;23.20;92.30;;;;;;5030948;28;20562;-71
2022/09/06 10:26:26;;;;;;;6.32;2.88;;;23.30;92.30;;;;;;5030964;28;20056;-72
2022/09/06 10:29:02;;;;;;;5.90;2.72;;;23.40;91.80;;;;;;5030734;28;20029;-71
2022/09/06 10:31:42;;;;;;;6.40;2.50;;;23.40;92.00;;;;;;5030264;28;20424;-71
2022/09/06 10:34:16;;;;;;;4.35;2.55;;;23.50;91.60;;;;;;5030934;28;20041;-71
2022/09/06 10:36:57;;;;;;;6.07;2.85;;;23.50;91.80;;;;;;5031100;28;20026;-71
2022/09/06 10:39:38;;;;;;;7.85;3.13;;;23.50;92.00;;;;;;5031401;28;20375;-70
2022/09/06 10:42:20;;;;;;;6.47;2.80;;;23.60;92.10;;;;;;5030437;28;20227;-70
2022/09/06 10:44:57;;;;;;;6.35;2.97;;;23.60;91.90;;;;;;5030362;28;20632;-70
2022/09/06 10:47:32;;;;;;;6.70;3.30;;;23.60;92.00;;;;;;5029602;28;20029;-71
2022/09/06 10:50:00;;;;;;;5.57;3.08;;;23.70;92.10;;;;;;5030064;28;20445;-70
2022/09/06 10:52:41;;;;;;;5.53;2.95;;;23.70;92.50;;;;;;5030543;28;20029;-70
2022/09/06 10:55:12;;;;;;;6.38;2.47;;;23.60;93.30;;;;;;5030691;28;20025;-71
2022/09/06 10:57:41;;;;;;;5.68;3.00;;;23.50;93.20;;;;;;5030662;28;20030;-71
2022/09/06 11:00:13;;;;;;;5.97;2.92;;;23.50;92.70;;;;;;5031645;28;20462;-71
2022/09/06 11:02:57;;;;;;;10.32;3.65;;;23.50;92.50;;;;;;5013367;28;20069;-71
2022/09/06 11:05:28;;;;;;;8.07;3.15;;;23.60;92.70;;;;;;5024379;28;20029;-71
2022/09/06 11:08:04;;;;;;;5.35;2.67;;;23.60;93.10;;;;;;5013186;28;20033;-71
2022/09/06 11:10:31;;;;;;;5.18;2.60;;;23.60;91.80;;;;;;5031189;28;20109;-71
2022/09/06 11:13:17;;;;;;;7.80;2.95;;;23.80;91.30;;;;;;5031428;28;20033;-71
2022/09/06 11:15:49;;;;;;;6.00;2.67;;;24.00;91.00;;;;;;5012834;28;20029;-71
2022/09/06 11:18:31;;;;;;;6.85;3.15;;;24.00;91.10;;;;;;5031008;28;20109;-71
2022/09/06 11:21:15;;;;;;;4.97;2.67;;;24.00;91.20;;;;;;5030775;28;20029;-71
2022/09/06 11:24:05;;;;;;;4.90;2.80;;;24.00;91.20;;;;;;5012689;28;20025;-72
2022/09/06 11:27:06;;;;;;;4.97;2.67;;;24.00;91.50;;;;;;5031259;28;20033;-70
2022/09/06 11:29:38;;;;;;;4.65;2.38;;;24.00;91.20;;;;;;5011758;28;20051;-67
2022/09/06 11:32:32;;;;;;;5.47;2.13;;;24.00;90.90;;;;;;5012250;28;20502;-68
2022/09/06 11:35:00;;;;;;;4.20;1.90;;;24.00;90.30;;;;;;5030555;28;20044;-68
2022/09/06 11:37:39;;;;;;;4.20;1.88;;;24.10;90.00;;;;;;5030156;28;20026;-68
2022/09/06 11:40:16;;;;;;;2.72;1.58;;;24.10;90.30;;;;;;5029751;28;20402;-67
2022/09/06 11:42:44;;;;;;;4.78;1.77;;;24.10;90.00;;;;;;5030223;28;20512;-67
2022/09/06 11:45:10;;;;;;;5.20;2.00;;;24.20;90.00;;;;;;5029876;28;20048;-67
2022/09/06 11:47:39;;;;;;;4.32;2.33;;;24.30;90.00;;;;;;5029407;28;20057;-67
2022/09/06 11:50:20;;;;;;;3.90;1.98;;;24.30;90.00;;;;;;5028165;28;20087;-67
2022/09/06 11:52:59;;;;;;;4.65;2.10;;;24.40;89.80;;;;;;5029591;28;20497;-67
2022/09/06 11:55:30;;;;;;;;;;;24.40;90.10;;;;;;5029807;28;20033;-67
2022/09/06 11:57:58;;;;;;;4.32;1.70;;;24.40;89.70;;;;;;5029618;28;19915;-67
2022/09/06 12:00:25;;;;;;;1.95;1.60;;;24.40;90.60;;;;;;5028915;28;20409;-67
2022/09/06 12:02:52;;;;;;;3.70;1.98;;;24.30;90.40;;;;;;5029435;28;20473;-67
2022/09/06 12:05:29;;;;;;;3.60;1.85;;;24.20;90.80;;;;;;5029223;28;20021;-67
2022/09/06 12:08:12;;;;;;;5.97;1.90;;;24.30;90.30;;;;;;5028612;28;20033;-69
2022/09/06 12:10:38;;;;;;;5.15;2.03;;;24.40;89.50;;;;;;5028830;28;20036;-67
2022/09/06 12:13:42;;;;;;;4.70;1.77;;;24.60;89.20;;;;;;5029147;28;20033;-69
2022/09/06 12:16:10;;;;;;;4.63;1.90;;;24.70;90.00;;;;;;5028434;28;20500;-70
2022/09/06 12:18:42;;;;;;;3.30;1.95;;;24.80;88.40;;;;;;5029148;28;20021;-69
2022/09/06 12:21:32;;;;;;;3.75;1.90;;;24.80;88.40;;;;;;5028898;28;20083;-69
2022/09/06 12:23:59;;;;;;;2.97;1.70;;;25.00;88.20;;;;;;5025520;28;20041;-69
2022/09/06 12:26:49;;;;;;;7.55;2.47;;;25.00;88.30;;;;;;5029157;28;20121;-69
2022/09/06 12:29:26;;;;;;;5.95;2.42;;;25.00;88.00;;;;;;5029280;28;20029;-70
2022/09/06 12:31:57;;;;;;;8.00;2.70;;;25.20;87.30;;;;;;5028764;28;20048;-70
2022/09/06 12:34:32;;;;;;;4.38;2.20;;;25.20;87.70;;;;;;5029185;28;20032;-70
2022/09/06 12:37:04;;;;;;;7.03;2.75;;;25.20;88.00;;;;;;5029005;28;20064;-71
2022/09/06 12:39:30;;;;;;;5.70;2.30;;;25.20;88.20;;;;;;5030225;28;20083;-70
2022/09/06 12:42:09;;;;;;;5.88;2.60;;;25.30;88.20;;;;;;5033519;28;20017;-70
2022/09/06 12:44:39;;;;;;;8.45;2.60;;;25.30;87.70;;;;;;5033253;28;20072;-70
2022/09/06 12:47:11;;;;;;;5.38;2.53;;;25.40;87.70;;;;;;5033043;28;20083;-71
2022/09/06 12:49:37;;;;;;;5.60;2.22;;;25.40;88.20;;;;;;5032828;28;20053;-68
2022/09/06 12:52:15;;;;;;;4.63;2.40;;;25.50;88.00;;;;;;5033047;28;20033;-70
2022/09/06 12:54:46;;;;;;;7.27;2.67;;;25.40;88.20;;;;;;5033021;28;20026;-69
2022/09/06 12:57:23;;;;;;;6.03;2.60;;;25.40;87.70;;;;;;5032406;28;20280;-69
2022/09/06 12:59:50;;;;;;;5.10;2.20;;;25.40;87.10;;;;;;5032468;28;20592;-69
2022/09/06 13:02:26;;;;;;;4.10;1.92;;;25.40;87.10;;;;;;5032016;28;20034;-68
2022/09/06 13:05:00;;;;;;;4.35;2.60;;;25.40;87.00;;;;;;5032596;28;20068;-69
2022/09/06 13:07:27;;;;;;;6.13;2.60;;;25.40;87.10;;;;;;5032474;28;20038;-68